createdAt,value
2022-08-11T00:00:07.678Z,44.26
2022-08-11T00:05:08.396Z,44.28
2022-08-11T00:10:08.107Z,44.35
2022-08-11T00:15:07.797Z,44.38
2022-08-11T00:20:12.423Z,44.42
2022-08-11T00:25:07.779Z,44.46
2022-08-11T00:30:08.482Z,44.51
2022-08-11T00:35:54.254Z,44.56
2022-08-11T00:40:08.131Z,44.61
2022-08-11T00:45:13.173Z,44.63
2022-08-11T00:50:07.867Z,44.66
2022-08-11T00:55:08.552Z,44.7
2022-08-11T01:00:08.296Z,44.77
2022-08-11T01:05:17.983Z,44.78
2022-08-11T01:10:07.728Z,44.81
2022-08-11T01:15:08.413Z,44.84
2022-08-11T01:20:46.415Z,44.91
2022-08-11T01:25:08.515Z,44.93
2022-08-11T01:30:08.218Z,44.95
2022-08-11T01:35:07.900Z,45.01
2022-08-11T01:40:08.585Z,45.06
2022-08-11T01:45:08.282Z,45.08
2022-08-11T01:50:10.698Z,45.11
2022-08-11T01:55:08.577Z,45.16
2022-08-11T02:00:08.254Z,45.19
2022-08-11T02:05:17.915Z,45.21
2022-08-11T02:10:08.629Z,45.26
2022-08-11T02:15:08.452Z,45.28
2022-08-11T02:20:08.161Z,45.32
2022-08-11T02:25:07.843Z,45.37
2022-08-11T02:30:08.540Z,45.41
2022-08-11T02:35:08.260Z,45.45
2022-08-11T02:40:07.940Z,45.48
2022-08-11T02:45:10.258Z,45.5
2022-08-11T02:50:08.078Z,45.54
2022-08-11T02:55:07.775Z,45.56
2022-08-11T03:00:08.230Z,45.6
2022-08-11T03:05:07.901Z,45.62
2022-08-11T03:10:08.612Z,45.67
2022-08-11T03:15:08.299Z,45.7
2022-08-11T03:20:17.963Z,45.74
2022-08-11T03:25:11.096Z,45.8
2022-08-11T03:30:08.672Z,45.83
2022-08-11T03:35:08.374Z,45.85
2022-08-11T03:40:18.057Z,45.9
2022-08-11T03:45:07.725Z,45.91
2022-08-11T03:50:08.387Z,45.97
2022-08-11T03:55:08.057Z,46.0
2022-08-11T04:00:17.753Z,46.05
2022-08-11T04:05:02.673Z,46.09
2022-08-11T04:10:02.566Z,46.15
2022-08-11T04:15:06.435Z,46.19
2022-08-11T04:20:12.332Z,46.18
2022-08-11T04:25:02.176Z,46.24
2022-08-11T04:30:05.221Z,46.31
2022-08-11T04:35:02.568Z,46.33
2022-08-11T04:40:12.422Z,46.38
2022-08-11T04:45:02.261Z,46.41
2022-08-11T04:50:02.045Z,46.43
2022-08-11T04:55:11.846Z,46.43
2022-08-11T05:00:02.662Z,46.51
2022-08-11T05:05:02.486Z,46.54
2022-08-11T05:10:02.291Z,46.62
2022-08-11T05:15:02.149Z,46.65
2022-08-11T05:20:01.972Z,46.76
2022-08-11T05:25:01.773Z,46.82
2022-08-11T05:30:02.597Z,46.88
2022-08-11T05:35:02.480Z,46.91
2022-08-11T05:40:02.411Z,46.98
2022-08-11T05:45:02.393Z,47.02
2022-08-11T05:50:02.088Z,47.04
2022-08-11T05:55:06.921Z,47.06
2022-08-11T06:00:02.057Z,47.04
2022-08-11T06:05:01.890Z,47.05
2022-08-11T06:10:02.661Z,47.01
2022-08-11T06:15:02.498Z,46.98
2022-08-11T06:20:07.044Z,46.93
2022-08-11T06:25:02.434Z,46.91
2022-08-11T06:30:02.273Z,46.86
2022-08-11T06:35:02.110Z,46.82
2022-08-11T06:40:01.940Z,46.73
2022-08-11T06:45:01.942Z,46.72
2022-08-11T06:50:02.952Z,46.63
2022-08-11T06:55:01.826Z,46.58
2022-08-11T07:00:03.224Z,46.5
2022-08-11T07:05:02.131Z,46.42
2022-08-11T07:10:01.984Z,46.35
2022-08-11T07:15:01.916Z,46.26
2022-08-11T07:20:02.761Z,46.14
2022-08-11T07:25:12.564Z,46.08
2022-08-11T07:30:02.421Z,45.96
2022-08-11T07:35:02.448Z,45.88
2022-08-11T07:40:02.331Z,45.77
2022-08-11T07:45:02.297Z,45.67
2022-08-11T07:50:02.455Z,45.6
2022-08-11T07:55:02.392Z,45.54
2022-08-11T08:00:04.554Z,45.39
2022-08-11T08:05:12.912Z,45.33
2022-08-11T08:10:02.827Z,45.2
2022-08-11T08:15:02.744Z,45.18
2022-08-11T08:20:02.569Z,45.01
2022-08-11T08:25:02.322Z,44.94
2022-08-11T08:30:02.250Z,44.79
2022-08-11T08:35:02.017Z,44.69
2022-08-11T08:40:01.827Z,44.55
2022-08-11T08:45:02.650Z,44.48
2022-08-11T08:50:02.375Z,44.34
2022-08-11T08:55:02.222Z,44.28
2022-08-11T09:00:02.052Z,44.18
2022-08-11T09:05:01.874Z,44.05
2022-08-11T09:10:01.799Z,43.92
2022-08-11T09:15:02.778Z,43.82
2022-08-11T09:20:02.709Z,43.7
2022-08-11T09:25:02.578Z,43.61
2022-08-11T09:30:02.582Z,43.47
2022-08-11T09:35:02.490Z,43.37
2022-08-11T09:40:02.719Z,43.27
2022-08-11T09:45:02.613Z,43.18
2022-08-11T09:50:02.729Z,43.05
2022-08-11T09:55:02.654Z,42.95
2022-08-11T10:00:12.559Z,42.85
2022-08-11T10:05:12.413Z,42.74
2022-08-11T10:10:02.222Z,42.65
2022-08-11T10:15:01.963Z,42.55
2022-08-11T10:20:04.066Z,42.44
2022-08-11T10:25:02.383Z,42.35
2022-08-11T10:30:02.223Z,42.21
2022-08-11T10:35:02.043Z,42.13
2022-08-11T10:40:01.831Z,41.99
2022-08-11T10:45:02.698Z,41.9
2022-08-11T10:50:02.529Z,41.75
2022-08-11T10:55:02.262Z,41.7
2022-08-11T11:00:02.408Z,41.55
2022-08-11T11:05:02.328Z,41.46
2022-08-11T11:10:02.140Z,41.3
2022-08-11T11:15:01.982Z,41.24
2022-08-11T11:20:01.729Z,41.13
2022-08-11T11:25:02.470Z,41.04
2022-08-11T11:30:02.218Z,40.95
2022-08-11T11:35:12.137Z,40.78
2022-08-11T11:40:01.873Z,40.65
2022-08-11T11:45:02.645Z,40.52
2022-08-11T11:50:02.347Z,40.42
2022-08-11T11:55:02.198Z,40.21
2022-08-11T12:00:01.997Z,40.05
2022-08-11T12:05:02.040Z,39.98
2022-08-11T12:10:01.914Z,39.85
2022-08-11T12:15:02.966Z,39.72
2022-08-11T12:20:01.903Z,39.5
2022-08-11T12:25:02.627Z,39.38
2022-08-11T12:30:02.619Z,39.26
2022-08-11T12:35:02.412Z,39.09
2022-08-11T12:40:16.528Z,38.84
2022-08-11T12:45:02.815Z,38.76
2022-08-11T12:50:05.444Z,38.68
2022-08-11T12:55:13.507Z,38.52
2022-08-11T13:00:01.783Z,38.35
2022-08-11T13:05:02.681Z,38.25
2022-08-11T13:10:03.053Z,38.17
2022-08-11T13:15:01.897Z,38.04
2022-08-11T13:20:02.206Z,37.91
2022-08-11T13:25:02.085Z,37.83
2022-08-11T13:30:01.866Z,37.72
2022-08-11T13:35:02.743Z,37.59
2022-08-11T13:40:02.248Z,37.51
2022-08-11T13:45:01.999Z,37.45
2022-08-11T13:50:01.804Z,37.31
2022-08-11T13:55:02.590Z,37.18
2022-08-11T14:00:02.399Z,37.18
2022-08-11T14:05:02.310Z,37.1
2022-08-11T14:10:02.043Z,37.03
2022-08-11T14:15:07.615Z,37.0
2022-08-11T14:20:02.116Z,36.88
2022-08-11T14:25:02.584Z,36.8
2022-08-11T14:30:02.637Z,36.74
2022-08-11T14:35:02.564Z,36.71
2022-08-11T14:40:03.930Z,36.63
2022-08-11T14:45:12.195Z,36.6
2022-08-11T14:50:11.422Z,36.56
2022-08-11T14:55:02.373Z,36.53
2022-08-11T15:00:02.421Z,36.49
2022-08-11T15:05:02.286Z,36.45
2022-08-11T15:10:13.765Z,36.4
2022-08-11T15:15:01.970Z,36.4
2022-08-11T15:20:01.936Z,36.39
2022-08-11T15:25:02.761Z,36.39
2022-08-11T15:30:02.591Z,36.36
2022-08-11T15:35:03.994Z,36.36
2022-08-11T15:40:30.099Z,36.32
2022-08-11T15:45:04.368Z,36.36
2022-08-11T15:50:11.533Z,36.36
2022-08-11T15:55:02.415Z,36.32
2022-08-11T16:00:02.228Z,36.29
2022-08-11T16:05:02.101Z,36.3
2022-08-11T16:10:09.523Z,36.29
2022-08-11T16:15:02.573Z,36.3
2022-08-11T16:20:02.573Z,36.31
2022-08-11T16:27:06.118Z,36.29
2022-08-11T16:30:02.450Z,36.32
2022-08-11T16:35:02.237Z,36.32
2022-08-11T16:40:02.136Z,36.31
2022-08-11T16:45:02.062Z,36.36
2022-08-11T16:50:01.775Z,36.37
2022-08-11T16:55:02.691Z,36.38
2022-08-11T17:00:02.597Z,36.36
2022-08-11T17:05:02.351Z,36.39
2022-08-11T17:10:02.175Z,36.39
2022-08-11T17:15:01.973Z,36.41
2022-08-11T17:20:41.259Z,36.44
2022-08-11T17:25:02.690Z,36.46
2022-08-11T17:30:02.582Z,36.47
2022-08-11T17:35:12.402Z,36.51
2022-08-11T17:40:02.166Z,36.53
2022-08-11T17:45:02.187Z,36.51
2022-08-11T17:50:17.189Z,36.58
2022-08-11T17:55:02.206Z,36.57
2022-08-11T18:00:01.900Z,36.6
2022-08-11T18:05:02.755Z,36.6
2022-08-11T18:10:12.606Z,36.64
2022-08-11T18:15:02.434Z,36.64
2022-08-11T18:20:02.254Z,36.68
2022-08-11T18:25:02.106Z,36.69
2022-08-11T18:30:01.994Z,36.73
2022-08-11T18:35:11.946Z,36.73
2022-08-11T18:40:02.035Z,36.77
2022-08-11T18:45:01.882Z,36.79
2022-08-11T18:50:04.978Z,36.85
2022-08-11T18:55:02.307Z,36.85
2022-08-11T19:00:02.223Z,36.92
2022-08-11T19:05:02.066Z,36.95
2022-08-11T19:10:01.973Z,37.0
2022-08-11T19:15:01.835Z,37.02
2022-08-11T19:20:02.680Z,37.08
2022-08-11T19:25:12.523Z,37.15
2022-08-11T19:30:12.797Z,37.19
2022-08-11T19:35:01.784Z,37.26
2022-08-11T19:40:02.538Z,37.29
2022-08-11T19:45:02.155Z,37.35
2022-08-11T19:50:11.662Z,37.42
2022-08-11T19:55:01.788Z,37.48
2022-08-11T20:00:02.751Z,37.52
2022-08-11T20:05:02.584Z,37.58
2022-08-11T20:10:06.145Z,37.62
2022-08-11T20:15:02.554Z,37.7
2022-08-11T20:20:02.670Z,37.76
2022-08-11T20:25:02.678Z,37.81
2022-08-11T20:30:02.610Z,37.92
2022-08-11T20:35:08.288Z,38.0
2022-08-11T20:40:07.976Z,38.06
2022-08-11T20:45:17.687Z,38.14
2022-08-11T20:50:08.359Z,38.18
2022-08-11T20:55:10.522Z,38.25
2022-08-11T21:00:07.796Z,38.28
2022-08-11T21:05:07.731Z,38.36
2022-08-11T21:10:23.411Z,38.41
2022-08-11T21:15:07.903Z,38.44
2022-08-11T21:20:11.897Z,38.48
2022-08-11T21:25:08.221Z,38.55
2022-08-11T21:30:07.922Z,38.58
2022-08-11T21:35:18.607Z,38.66
2022-08-11T21:40:08.296Z,38.68
2022-08-11T21:45:08.003Z,38.76
2022-08-11T21:50:07.717Z,38.79
2022-08-11T21:55:08.417Z,38.85
2022-08-11T22:00:13.821Z,38.87
2022-08-11T22:05:08.463Z,38.94
2022-08-11T22:10:40.394Z,39.0
2022-08-11T22:15:08.302Z,39.03
2022-08-11T22:20:07.973Z,39.08
2022-08-11T22:25:16.010Z,39.17
2022-08-11T22:30:08.072Z,39.22
2022-08-11T22:35:07.747Z,39.26
2022-08-11T22:40:08.496Z,39.32
2022-08-11T22:45:08.238Z,39.35
2022-08-11T22:50:07.954Z,39.39
2022-08-11T22:55:17.671Z,39.45
2022-08-11T23:01:00.485Z,39.49
2022-08-11T23:05:08.362Z,39.55
2022-08-11T23:10:08.073Z,39.58
2022-08-11T23:15:07.786Z,39.64
2022-08-11T23:20:28.386Z,39.66
2022-08-11T23:25:08.321Z,39.71
2022-08-11T23:30:08.333Z,39.74
2022-08-11T23:35:38.337Z,39.81
2022-08-11T23:40:08.326Z,39.86
2022-08-11T23:45:09.552Z,39.88
2022-08-11T23:50:08.461Z,39.88
2022-08-11T23:55:08.122Z,39.99
